sensor_id;sensor_type;location;lat;lon;timestamp;pressure;altitude;pressure_sealevel;temperature;humidity
29907;BME280;16776;50.958;10.994;2023-03-15T00:00:55;97859.53;;;3.21;94.69
29907;BME280;16776;50.958;10.994;2023-03-15T00:03:22;97869.72;;;3.20;94.85
29907;BME280;16776;50.958;10.994;2023-03-15T00:05:50;97865.47;;;3.20;94.69
29907;BME280;16776;50.958;10.994;2023-03-15T00:08:18;97867.16;;;3.20;95.46
29907;BME280;16776;50.958;10.994;2023-03-15T00:10:46;97879.88;;;3.20;95.48
29907;BME280;16776;50.958;10.994;2023-03-15T00:13:14;97885.00;;;3.18;94.72
29907;BME280;16776;50.958;10.994;2023-03-15T00:15:44;97887.50;;;3.21;94.62
29907;BME280;16776;50.958;10.994;2023-03-15T00:18:13;97890.94;;;3.19;95.11
29907;BME280;16776;50.958;10.994;2023-03-15T00:20:40;97894.34;;;3.16;94.89
29907;BME280;16776;50.958;10.994;2023-03-15T00:23:06;97893.50;;;3.14;95.37
29907;BME280;16776;50.958;10.994;2023-03-15T00:25:33;97907.09;;;3.13;94.79
29907;BME280;16776;50.958;10.994;2023-03-15T00:28:00;97902.88;;;3.12;94.24
29907;BME280;16776;50.958;10.994;2023-03-15T00:30:26;97896.94;;;3.10;94.49
29907;BME280;16776;50.958;10.994;2023-03-15T00:32:54;97913.91;;;3.10;95.35
29907;BME280;16776;50.958;10.994;2023-03-15T00:35:22;97921.53;;;3.10;94.36
29907;BME280;16776;50.958;10.994;2023-03-15T00:37:51;97924.09;;;3.06;95.04
29907;BME280;16776;50.958;10.994;2023-03-15T00:40:19;97923.28;;;3.04;94.56
29907;BME280;16776;50.958;10.994;2023-03-15T00:42:49;97926.69;;;3.02;95.22
29907;BME280;16776;50.958;10.994;2023-03-15T00:45:16;97929.22;;;3.00;94.20
29907;BME280;16776;50.958;10.994;2023-03-15T00:47:47;97934.31;;;3.00;95.09
29907;BME280;16776;50.958;10.994;2023-03-15T00:50:17;97938.59;;;2.97;94.11
29907;BME280;16776;50.958;10.994;2023-03-15T00:52:47;97940.28;;;2.95;94.68
29907;BME280;16776;50.958;10.994;2023-03-15T00:55:15;97937.78;;;2.92;93.94
29907;BME280;16776;50.958;10.994;2023-03-15T00:57:44;97942.03;;;2.90;94.21
29907;BME280;16776;50.958;10.994;2023-03-15T01:00:17;97938.66;;;2.91;94.78
29907;BME280;16776;50.958;10.994;2023-03-15T01:02:47;97935.31;;;2.84;94.64
29907;BME280;16776;50.958;10.994;2023-03-15T01:05:14;97942.09;;;2.84;93.90
29907;BME280;16776;50.958;10.994;2023-03-15T01:07:40;97929.41;;;2.81;94.42
29907;BME280;16776;50.958;10.994;2023-03-15T01:10:12;97943.81;;;2.80;93.70
29907;BME280;16776;50.958;10.994;2023-03-15T01:12:39;97934.56;;;2.67;94.33
29907;BME280;16776;50.958;10.994;2023-03-15T01:15:08;97940.47;;;2.72;94.83
29907;BME280;16776;50.958;10.994;2023-03-15T01:17:36;97939.63;;;2.69;93.63
29907;BME280;16776;50.958;10.994;2023-03-15T01:20:06;97949.84;;;2.65;93.57
29907;BME280;16776;50.958;10.994;2023-03-15T01:22:33;97950.72;;;2.61;93.93
29907;BME280;16776;50.958;10.994;2023-03-15T01:24:59;97954.94;;;2.58;93.68
29907;BME280;16776;50.958;10.994;2023-03-15T01:27:27;97951.56;;;2.57;94.33
29907;BME280;16776;50.958;10.994;2023-03-15T01:29:54;97956.69;;;2.53;93.88
29907;BME280;16776;50.958;10.994;2023-03-15T01:32:23;97958.38;;;2.51;94.78
29907;BME280;16776;50.958;10.994;2023-03-15T01:34:49;97955.88;;;2.48;94.46
29907;BME280;16776;50.958;10.994;2023-03-15T01:37:16;97951.63;;;2.44;94.89
29907;BME280;16776;50.958;10.994;2023-03-15T01:39:42;97955.88;;;2.43;94.47
29907;BME280;16776;50.958;10.994;2023-03-15T01:42:09;97960.97;;;2.40;94.37
29907;BME280;16776;50.958;10.994;2023-03-15T01:44:52;97964.38;;;2.42;93.42
29907;BME280;16776;50.958;10.994;2023-03-15T01:47:19;97966.94;;;2.32;93.51
29907;BME280;16776;50.958;10.994;2023-03-15T01:49:51;97966.97;;;2.29;93.63
29907;BME280;16776;50.958;10.994;2023-03-15T01:52:24;97982.22;;;2.24;93.38
29907;BME280;16776;50.958;10.994;2023-03-15T01:54:53;97983.09;;;2.18;94.64
29907;BME280;16776;50.958;10.994;2023-03-15T01:57:28;97980.56;;;2.14;94.34
29907;BME280;16776;50.958;10.994;2023-03-15T02:00:02;97985.63;;;2.11;93.37
29907;BME280;16776;50.958;10.994;2023-03-15T02:02:35;97973.00;;;2.02;94.11
29907;BME280;16776;50.958;10.994;2023-03-15T02:05:06;97989.06;;;1.99;94.61
29907;BME280;16776;50.958;10.994;2023-03-15T02:07:36;97989.09;;;1.95;93.56
29907;BME280;16776;50.958;10.994;2023-03-15T02:10:06;97988.25;;;1.93;93.79
29907;BME280;16776;50.958;10.994;2023-03-15T02:12:37;97972.19;;;1.83;93.71
29907;BME280;16776;50.958;10.994;2023-03-15T02:15:08;97984.88;;;1.88;93.64
29907;BME280;16776;50.958;10.994;2023-03-15T02:17:37;97982.34;;;1.81;93.33
29907;BME280;16776;50.958;10.994;2023-03-15T02:20:11;97979.84;;;1.78;93.98
29907;BME280;16776;50.958;10.994;2023-03-15T02:22:46;97991.66;;;1.73;94.47
29907;BME280;16776;50.958;10.994;2023-03-15T02:25:21;97991.69;;;1.70;93.90
29907;BME280;16776;50.958;10.994;2023-03-15T02:27:53;97990.84;;;1.64;94.46
29907;BME280;16776;50.958;10.994;2023-03-15T02:30:19;97989.16;;;1.57;94.17
29907;BME280;16776;50.958;10.994;2023-03-15T02:32:46;97986.63;;;1.52;93.87
29907;BME280;16776;50.958;10.994;2023-03-15T02:35:22;97991.72;;;1.52;94.01
29907;BME280;16776;50.958;10.994;2023-03-15T02:37:49;97987.47;;;1.40;94.17
29907;BME280;16776;50.958;10.994;2023-03-15T02:40:17;97995.09;;;1.36;93.51
29907;BME280;16776;50.958;10.994;2023-03-15T02:42:45;97997.63;;;1.31;93.38
29907;BME280;16776;50.958;10.994;2023-03-15T02:45:15;97997.66;;;1.27;93.31
29907;BME280;16776;50.958;10.994;2023-03-15T02:47:42;97994.25;;;1.22;94.52
29907;BME280;16776;50.958;10.994;2023-03-15T02:50:10;97998.47;;;1.17;93.73
29907;BME280;16776;50.958;10.994;2023-03-15T02:52:38;98008.63;;;1.14;93.94
29907;BME280;16776;50.958;10.994;2023-03-15T02:55:06;98007.75;;;1.09;94.12
29907;BME280;16776;50.958;10.994;2023-03-15T02:57:33;98014.50;;;1.03;93.91
29907;BME280;16776;50.958;10.994;2023-03-15T02:59:59;98010.28;;;0.99;93.69
29907;BME280;16776;50.958;10.994;2023-03-15T03:02:32;98006.91;;;0.97;93.87
29907;BME280;16776;50.958;10.994;2023-03-15T03:04:59;98011.97;;;0.93;93.43
29907;BME280;16776;50.958;10.994;2023-03-15T03:07:26;98010.28;;;0.89;94.33
29907;BME280;16776;50.958;10.994;2023-03-15T03:09:52;98017.84;;;0.86;93.54
29907;BME280;16776;50.958;10.994;2023-03-15T03:12:19;98015.31;;;0.81;94.07
29907;BME280;16776;50.958;10.994;2023-03-15T03:14:45;98022.03;;;0.76;93.47
29907;BME280;16776;50.958;10.994;2023-03-15T03:17:12;98025.41;;;0.69;93.65
29907;BME280;16776;50.958;10.994;2023-03-15T03:19:40;98026.25;;;0.68;93.97
29907;BME280;16776;50.958;10.994;2023-03-15T03:22:06;98027.91;;;0.61;93.86
29907;BME280;16776;50.958;10.994;2023-03-15T03:24:34;98029.56;;;0.58;93.87
29907;BME280;16776;50.958;10.994;2023-03-15T03:27:00;98025.34;;;0.54;93.90
29907;BME280;16776;50.958;10.994;2023-03-15T03:29:27;98043.06;;;0.48;93.64
29907;BME280;16776;50.958;10.994;2023-03-15T03:31:53;98040.50;;;0.45;94.19
29907;BME280;16776;50.958;10.994;2023-03-15T03:34:20;98043.88;;;0.41;94.15
29907;BME280;16776;50.958;10.994;2023-03-15T03:36:48;98045.53;;;0.39;93.89
29907;BME280;16776;50.958;10.994;2023-03-15T03:39:14;98053.13;;;0.33;93.86
29907;BME280;16776;50.958;10.994;2023-03-15T03:41:41;98058.16;;;0.28;93.99
29907;BME280;16776;50.958;10.994;2023-03-15T03:44:07;98063.19;;;0.25;93.79
29907;BME280;16776;50.958;10.994;2023-03-15T03:46:34;98065.72;;;0.17;93.97
29907;BME280;16776;50.958;10.994;2023-03-15T03:49:00;98059.81;;;0.17;93.99
29907;BME280;16776;50.958;10.994;2023-03-15T03:51:27;98068.22;;;0.14;93.93
29907;BME280;16776;50.958;10.994;2023-03-15T03:53:55;98064.81;;;0.12;93.94
29907;BME280;16776;50.958;10.994;2023-03-15T03:56:21;98068.16;;;0.07;93.64
29907;BME280;16776;50.958;10.994;2023-03-15T03:58:48;98064.81;;;0.05;93.96
29907;BME280;16776;50.958;10.994;2023-03-15T04:01:15;98074.06;;;0.04;93.90
29907;BME280;16776;50.958;10.994;2023-03-15T04:03:41;98083.34;;;0.02;94.23
29907;BME280;16776;50.958;10.994;2023-03-15T04:06:08;98088.41;;;0.02;94.21
29907;BME280;16776;50.958;10.994;2023-03-15T04:08:35;98085.00;;;0.02;94.15
29907;BME280;16776;50.958;10.994;2023-03-15T04:11:03;98085.88;;;0.04;94.36
29907;BME280;16776;50.958;10.994;2023-03-15T04:13:30;98094.31;;;0.04;94.51
29907;BME280;16776;50.958;10.994;2023-03-15T04:15:58;98095.19;;;0.08;94.57
29907;BME280;16776;50.958;10.994;2023-03-15T04:18:29;98096.91;;;0.10;94.17
29907;BME280;16776;50.958;10.994;2023-03-15T04:20:56;98106.19;;;0.11;94.33
29907;BME280;16776;50.958;10.994;2023-03-15T04:23:22;98107.84;;;0.12;93.96
29907;BME280;16776;50.958;10.994;2023-03-15T04:25:50;98104.50;;;0.13;94.61
29907;BME280;16776;50.958;10.994;2023-03-15T04:28:18;98105.34;;;0.15;94.40
29907;BME280;16776;50.958;10.994;2023-03-15T04:30:46;98103.69;;;0.16;94.26
29907;BME280;16776;50.958;10.994;2023-03-15T04:33:13;98101.97;;;0.15;94.50
29907;BME280;16776;50.958;10.994;2023-03-15T04:35:42;98104.53;;;0.16;94.23
29907;BME280;16776;50.958;10.994;2023-03-15T04:38:09;98109.59;;;0.16;94.25
29907;BME280;16776;50.958;10.994;2023-03-15T04:40:36;98108.75;;;0.17;93.99
29907;BME280;16776;50.958;10.994;2023-03-15T04:43:03;98113.81;;;0.19;94.38
29907;BME280;16776;50.958;10.994;2023-03-15T04:45:35;98108.75;;;0.20;94.17
29907;BME280;16776;50.958;10.994;2023-03-15T04:48:01;98107.94;;;0.18;94.57
29907;BME280;16776;50.958;10.994;2023-03-15T04:50:29;98117.19;;;0.19;94.22
29907;BME280;16776;50.958;10.994;2023-03-15T04:52:56;98118.03;;;0.20;94.53
29907;BME280;16776;50.958;10.994;2023-03-15T04:55:23;98118.88;;;0.19;93.95
29907;BME280;16776;50.958;10.994;2023-03-15T04:57:50;98123.94;;;0.19;94.09
29907;BME280;16776;50.958;10.994;2023-03-15T05:00:18;98129.00;;;0.19;94.57
29907;BME280;16776;50.958;10.994;2023-03-15T05:02:47;98133.25;;;0.21;94.47
29907;BME280;16776;50.958;10.994;2023-03-15T05:05:22;98132.41;;;0.21;94.44
29907;BME280;16776;50.958;10.994;2023-03-15T05:07:49;98133.25;;;0.21;94.51
29907;BME280;16776;50.958;10.994;2023-03-15T05:10:18;98130.72;;;0.23;94.31
29907;BME280;16776;50.958;10.994;2023-03-15T05:12:45;98128.19;;;0.21;94.51
29907;BME280;16776;50.958;10.994;2023-03-15T05:15:12;98123.97;;;0.22;94.54
29907;BME280;16776;50.958;10.994;2023-03-15T05:17:38;98139.16;;;0.22;94.45
29907;BME280;16776;50.958;10.994;2023-03-15T05:20:07;98139.16;;;0.25;94.65
29907;BME280;16776;50.958;10.994;2023-03-15T05:22:37;98143.41;;;0.24;94.72
29907;BME280;16776;50.958;10.994;2023-03-15T05:25:05;98145.97;;;0.29;97.01
29907;BME280;16776;50.958;10.994;2023-03-15T05:27:32;98147.78;;;0.48;99.35
29907;BME280;16776;50.958;10.994;2023-03-15T05:29:59;98151.28;;;0.78;99.33
29907;BME280;16776;50.958;10.994;2023-03-15T05:32:28;98156.53;;;1.07;98.39
29907;BME280;16776;50.958;10.994;2023-03-15T05:34:58;98163.34;;;1.26;97.61
29907;BME280;16776;50.958;10.994;2023-03-15T05:37:28;98154.91;;;1.37;96.76
29907;BME280;16776;50.958;10.994;2023-03-15T05:39:59;98164.22;;;1.41;95.22
29907;BME280;16776;50.958;10.994;2023-03-15T05:42:25;98170.13;;;1.40;95.91
29907;BME280;16776;50.958;10.994;2023-03-15T05:44:53;98174.38;;;1.37;94.57
29907;BME280;16776;50.958;10.994;2023-03-15T05:47:20;98179.41;;;1.34;94.61
29907;BME280;16776;50.958;10.994;2023-03-15T05:49:47;98176.88;;;1.28;94.68
29907;BME280;16776;50.958;10.994;2023-03-15T05:52:15;98182.78;;;1.25;95.22
29907;BME280;16776;50.958;10.994;2023-03-15T05:54:43;98192.06;;;1.23;94.87
29907;BME280;16776;50.958;10.994;2023-03-15T05:57:10;98190.34;;;1.15;94.58
29907;BME280;16776;50.958;10.994;2023-03-15T05:59:36;98190.31;;;1.09;94.92
29907;BME280;16776;50.958;10.994;2023-03-15T06:02:03;98200.44;;;1.02;94.74
29907;BME280;16776;50.958;10.994;2023-03-15T06:04:31;98192.84;;;0.99;94.84
29907;BME280;16776;50.958;10.994;2023-03-15T06:06:58;98195.38;;;0.95;94.62
29907;BME280;16776;50.958;10.994;2023-03-15T06:09:25;98202.94;;;0.92;95.05
29907;BME280;16776;50.958;10.994;2023-03-15T06:11:52;98207.16;;;0.90;95.14
29907;BME280;16776;50.958;10.994;2023-03-15T06:14:19;98218.13;;;0.87;94.74
29907;BME280;16776;50.958;10.994;2023-03-15T06:16:46;98207.94;;;0.84;94.84
29907;BME280;16776;50.958;10.994;2023-03-15T06:19:14;98208.78;;;0.85;95.50
29907;BME280;16776;50.958;10.994;2023-03-15T06:21:41;98224.84;;;0.82;95.15
29907;BME280;16776;50.958;10.994;2023-03-15T06:24:08;98232.44;;;0.84;95.59
29907;BME280;16776;50.958;10.994;2023-03-15T06:26:34;98226.50;;;0.83;95.43
29907;BME280;16776;50.958;10.994;2023-03-15T06:29:02;98235.00;;;0.87;95.42
29907;BME280;16776;50.958;10.994;2023-03-15T06:31:29;98240.13;;;0.88;96.04
29907;BME280;16776;50.958;10.994;2023-03-15T06:33:58;98243.47;;;0.90;95.73
29907;BME280;16776;50.958;10.994;2023-03-15T06:36:25;98246.00;;;0.90;95.53
29907;BME280;16776;50.958;10.994;2023-03-15T06:38:52;98242.66;;;0.93;96.09
29907;BME280;16776;50.958;10.994;2023-03-15T06:41:19;98243.50;;;0.96;95.43
29907;BME280;16776;50.958;10.994;2023-03-15T06:43:45;98251.16;;;0.99;96.18
29907;BME280;16776;50.958;10.994;2023-03-15T06:46:13;98252.84;;;1.02;95.68
29907;BME280;16776;50.958;10.994;2023-03-15T06:48:40;98256.25;;;1.04;96.11
29907;BME280;16776;50.958;10.994;2023-03-15T06:51:07;98259.63;;;1.06;95.98
29907;BME280;16776;50.958;10.994;2023-03-15T06:53:33;98258.78;;;1.06;96.37
29907;BME280;16776;50.958;10.994;2023-03-15T06:56:00;98265.56;;;1.07;95.57
29907;BME280;16776;50.958;10.994;2023-03-15T06:58:27;98265.53;;;1.08;96.44
29907;BME280;16776;50.958;10.994;2023-03-15T07:00:56;98267.25;;;1.08;96.11
29907;BME280;16776;50.958;10.994;2023-03-15T07:03:24;98275.69;;;1.08;96.14
29907;BME280;16776;50.958;10.994;2023-03-15T07:05:51;98267.19;;;0.98;96.78
29907;BME280;16776;50.958;10.994;2023-03-15T07:08:19;98279.06;;;1.06;96.69
29907;BME280;16776;50.958;10.994;2023-03-15T07:10:46;98282.47;;;1.08;96.73
29907;BME280;16776;50.958;10.994;2023-03-15T07:13:12;98266.38;;;0.99;96.46
29907;BME280;16776;50.958;10.994;2023-03-15T07:15:42;98290.91;;;1.10;96.47
29907;BME280;16776;50.958;10.994;2023-03-15T07:18:09;98295.13;;;1.09;96.64
29907;BME280;16776;50.958;10.994;2023-03-15T07:20:37;98297.72;;;1.14;97.34
29907;BME280;16776;50.958;10.994;2023-03-15T07:23:03;98303.66;;;1.14;96.09
29907;BME280;16776;50.958;10.994;2023-03-15T07:25:33;98304.47;;;1.15;97.36
29907;BME280;16776;50.958;10.994;2023-03-15T07:27:59;98303.66;;;1.17;96.95
29907;BME280;16776;50.958;10.994;2023-03-15T07:30:28;98308.75;;;1.23;97.32
29907;BME280;16776;50.958;10.994;2023-03-15T07:32:57;98309.59;;;1.22;97.21
29907;BME280;16776;50.958;10.994;2023-03-15T07:35:30;98314.72;;;1.27;97.04
29907;BME280;16776;50.958;10.994;2023-03-15T07:37:58;98315.53;;;1.29;97.51
29907;BME280;16776;50.958;10.994;2023-03-15T07:40:25;98321.47;;;1.31;97.18
29907;BME280;16776;50.958;10.994;2023-03-15T07:42:51;98321.47;;;1.34;98.03
29907;BME280;16776;50.958;10.994;2023-03-15T07:45:18;98329.13;;;1.38;97.09
29907;BME280;16776;50.958;10.994;2023-03-15T07:47:44;98326.63;;;1.43;97.45
29907;BME280;16776;50.958;10.994;2023-03-15T07:50:11;98330.88;;;1.49;98.27
29907;BME280;16776;50.958;10.994;2023-03-15T07:52:41;98324.97;;;1.54;97.70
29907;BME280;16776;50.958;10.994;2023-03-15T07:55:09;98332.59;;;1.60;97.52
29907;BME280;16776;50.958;10.994;2023-03-15T07:57:36;98341.94;;;1.64;98.11
29907;BME280;16776;50.958;10.994;2023-03-15T08:00:04;98333.47;;;1.67;98.23
29907;BME280;16776;50.958;10.994;2023-03-15T08:02:34;98338.59;;;1.74;98.36
29907;BME280;16776;50.958;10.994;2023-03-15T08:05:00;98336.06;;;1.76;98.33
29907;BME280;16776;50.958;10.994;2023-03-15T08:07:28;98343.69;;;1.80;97.96
29907;BME280;16776;50.958;10.994;2023-03-15T08:09:55;98342.88;;;1.83;98.01
29907;BME280;16776;50.958;10.994;2023-03-15T08:12:25;98335.25;;;1.88;97.19
29907;BME280;16776;50.958;10.994;2023-03-15T08:14:55;98343.72;;;1.88;97.02
29907;BME280;16776;50.958;10.994;2023-03-15T08:17:21;98339.50;;;1.90;96.98
29907;BME280;16776;50.958;10.994;2023-03-15T08:19:48;98350.50;;;1.92;97.21
29907;BME280;16776;50.958;10.994;2023-03-15T08:22:15;98344.56;;;1.93;97.43
29907;BME280;16776;50.958;10.994;2023-03-15T08:24:41;98342.88;;;1.94;96.87
29907;BME280;16776;50.958;10.994;2023-03-15T08:27:13;98348.00;;;1.97;97.31
29907;BME280;16776;50.958;10.994;2023-03-15T08:29:44;98356.47;;;1.97;97.97
29907;BME280;16776;50.958;10.994;2023-03-15T08:32:11;98348.81;;;1.96;97.22
29907;BME280;16776;50.958;10.994;2023-03-15T08:34:38;98350.53;;;1.97;97.26
29907;BME280;16776;50.958;10.994;2023-03-15T08:37:04;98352.22;;;1.99;97.66
29907;BME280;16776;50.958;10.994;2023-03-15T08:39:33;98364.94;;;2.01;97.60
29907;BME280;16776;50.958;10.994;2023-03-15T08:42:00;98363.25;;;2.06;98.56
29907;BME280;16776;50.958;10.994;2023-03-15T08:44:29;98362.44;;;2.16;97.83
29907;BME280;16776;50.958;10.994;2023-03-15T08:46:57;98343.78;;;2.14;98.58
29907;BME280;16776;50.958;10.994;2023-03-15T08:49:24;98374.31;;;2.34;98.09
29907;BME280;16776;50.958;10.994;2023-03-15T08:51:50;98374.34;;;2.44;98.52
29907;BME280;16776;50.958;10.994;2023-03-15T08:54:17;98382.81;;;2.55;99.27
29907;BME280;16776;50.958;10.994;2023-03-15T08:56:43;98377.78;;;2.68;99.16
29907;BME280;16776;50.958;10.994;2023-03-15T08:59:10;98380.31;;;2.78;99.04
29907;BME280;16776;50.958;10.994;2023-03-15T09:01:37;98371.00;;;2.86;97.80
29907;BME280;16776;50.958;10.994;2023-03-15T09:04:05;98376.91;;;2.96;98.97
29907;BME280;16776;50.958;10.994;2023-03-15T09:06:32;98368.44;;;3.01;97.52
29907;BME280;16776;50.958;10.994;2023-03-15T09:08:59;98374.34;;;3.06;97.66
29907;BME280;16776;50.958;10.994;2023-03-15T09:11:32;98387.09;;;3.16;97.70
29907;BME280;16776;50.958;10.994;2023-03-15T09:13:58;98381.13;;;3.21;97.56
29907;BME280;16776;50.958;10.994;2023-03-15T09:16:28;98379.44;;;3.28;98.41
29907;BME280;16776;50.958;10.994;2023-03-15T09:18:57;98388.81;;;3.30;97.41
29907;BME280;16776;50.958;10.994;2023-03-15T09:21:25;98393.03;;;3.34;97.39
29907;BME280;16776;50.958;10.994;2023-03-15T09:23:53;98394.72;;;3.35;97.68
29907;BME280;16776;50.958;10.994;2023-03-15T09:26:19;98397.28;;;3.38;97.90
29907;BME280;16776;50.958;10.994;2023-03-15T09:28:46;98396.41;;;3.42;98.34
29907;BME280;16776;50.958;10.994;2023-03-15T09:31:13;98400.63;;;3.47;98.00
29907;BME280;16776;50.958;10.994;2023-03-15T09:33:39;98409.97;;;3.54;98.32
29907;BME280;16776;50.958;10.994;2023-03-15T09:36:06;98414.19;;;3.61;97.93
29907;BME280;16776;50.958;10.994;2023-03-15T09:38:36;98412.47;;;3.70;97.92
29907;BME280;16776;50.958;10.994;2023-03-15T09:41:03;98416.72;;;3.73;97.50
29907;BME280;16776;50.958;10.994;2023-03-15T09:43:42;98418.38;;;3.83;97.86
29907;BME280;16776;50.958;10.994;2023-03-15T09:46:27;98424.31;;;3.85;97.45
29907;BME280;16776;50.958;10.994;2023-03-15T09:49:04;98420.91;;;3.84;97.88
29907;BME280;16776;50.958;10.994;2023-03-15T09:51:38;98425.16;;;3.87;97.38
29907;BME280;16776;50.958;10.994;2023-03-15T09:54:16;98429.41;;;3.90;97.62
29907;BME280;16776;50.958;10.994;2023-03-15T09:56:52;98431.97;;;3.90;97.51
29907;BME280;16776;50.958;10.994;2023-03-15T09:59:21;98427.72;;;3.89;97.19
29907;BME280;16776;50.958;10.994;2023-03-15T10:01:54;98439.56;;;3.91;97.49
29907;BME280;16776;50.958;10.994;2023-03-15T10:04:27;98431.09;;;3.94;97.36
29907;BME280;16776;50.958;10.994;2023-03-15T10:06:58;98447.22;;;3.96;97.80
29907;BME280;16776;50.958;10.994;2023-03-15T10:09:41;98438.69;;;3.98;97.55
29907;BME280;16776;50.958;10.994;2023-03-15T10:12:10;98438.69;;;4.00;97.54
29907;BME280;16776;50.958;10.994;2023-03-15T10:15:13;98438.66;;;4.15;98.12
29907;BME280;16776;50.958;10.994;2023-03-15T10:17:47;98442.03;;;4.21;98.24
29907;BME280;16776;50.958;10.994;2023-03-15T10:20:20;98442.84;;;4.28;98.42
29907;BME280;16776;50.958;10.994;2023-03-15T10:22:56;98445.34;;;4.39;98.51
29907;BME280;16776;50.958;10.994;2023-03-15T10:25:26;98441.03;;;4.48;98.03
29907;BME280;16776;50.958;10.994;2023-03-15T10:27:56;98441.84;;;4.55;97.77
29907;BME280;16776;50.958;10.994;2023-03-15T10:30:28;98446.06;;;4.62;97.62
29907;BME280;16776;50.958;10.994;2023-03-15T10:32:58;98438.38;;;4.66;97.57
29907;BME280;16776;50.958;10.994;2023-03-15T10:35:27;98446.84;;;4.72;97.45
29907;BME280;16776;50.958;10.994;2023-03-15T10:37:53;98457.03;;;4.76;97.32
29907;BME280;16776;50.958;10.994;2023-03-15T10:40:42;98467.19;;;4.85;96.46
29907;BME280;16776;50.958;10.994;2023-03-15T10:43:16;98474.03;;;4.79;96.23
29907;BME280;16776;50.958;10.994;2023-03-15T10:45:46;98474.06;;;4.70;96.24
29907;BME280;16776;50.958;10.994;2023-03-15T10:48:13;98480.06;;;4.61;96.36
29907;BME280;16776;50.958;10.994;2023-03-15T10:50:39;98482.63;;;4.55;96.03
29907;BME280;16776;50.958;10.994;2023-03-15T10:53:10;98484.41;;;4.47;95.88
29907;BME280;16776;50.958;10.994;2023-03-15T10:55:42;98493.78;;;4.39;95.78
29907;BME280;16776;50.958;10.994;2023-03-15T10:58:19;98505.72;;;4.28;95.61
29907;BME280;16776;50.958;10.994;2023-03-15T11:00:51;98509.19;;;4.08;95.51
29907;BME280;16776;50.958;10.994;2023-03-15T11:03:20;98512.59;;;3.94;95.73
29907;BME280;16776;50.958;10.994;2023-03-15T11:05:50;98506.69;;;3.81;95.73
29907;BME280;16776;50.958;10.994;2023-03-15T11:08:19;98496.53;;;3.63;95.38
29907;BME280;16776;50.958;10.994;2023-03-15T11:10:54;98499.91;;;3.53;96.12
29907;BME280;16776;50.958;10.994;2023-03-15T11:13:23;98494.84;;;3.36;96.19
29907;BME280;16776;50.958;10.994;2023-03-15T11:15:59;98493.16;;;3.30;96.49
29907;BME280;16776;50.958;10.994;2023-03-15T11:18:34;98499.88;;;3.21;96.21
29907;BME280;16776;50.958;10.994;2023-03-15T11:21:03;98499.03;;;3.16;97.23
29907;BME280;16776;50.958;10.994;2023-03-15T11:23:34;98506.66;;;3.16;97.04
29907;BME280;16776;50.958;10.994;2023-03-15T11:26:03;98500.75;;;3.17;97.23
29907;BME280;16776;50.958;10.994;2023-03-15T11:28:32;98504.97;;;3.18;98.49
29907;BME280;16776;50.958;10.994;2023-03-15T11:31:01;98499.03;;;3.23;97.82
29907;BME280;16776;50.958;10.994;2023-03-15T11:33:38;98484.63;;;3.22;98.16
29907;BME280;16776;50.958;10.994;2023-03-15T11:36:12;98492.28;;;3.36;98.34
29907;BME280;16776;50.958;10.994;2023-03-15T11:38:42;98494.84;;;3.42;99.30
29907;BME280;16776;50.958;10.994;2023-03-15T11:41:26;98484.63;;;3.53;99.55
29907;BME280;16776;50.958;10.994;2023-03-15T11:44:01;98488.03;;;3.61;99.40
29907;BME280;16776;50.958;10.994;2023-03-15T11:46:31;98477.00;;;3.68;99.89
29907;BME280;16776;50.958;10.994;2023-03-15T11:49:02;98476.09;;;3.87;100.00
29907;BME280;16776;50.958;10.994;2023-03-15T11:51:35;98482.00;;;4.09;100.00
29907;BME280;16776;50.958;10.994;2023-03-15T11:54:06;98481.91;;;4.30;100.00
29907;BME280;16776;50.958;10.994;2023-03-15T11:56:55;98487.75;;;4.58;100.00
29907;BME280;16776;50.958;10.994;2023-03-15T11:59:27;98485.09;;;4.73;100.00
29907;BME280;16776;50.958;10.994;2023-03-15T12:01:57;98484.16;;;4.86;99.60
29907;BME280;16776;50.958;10.994;2023-03-15T12:04:48;98484.06;;;5.01;99.27
29907;BME280;16776;50.958;10.994;2023-03-15T12:07:29;98483.19;;;5.07;99.16
29907;BME280;16776;50.958;10.994;2023-03-15T12:10:16;98492.59;;;5.03;98.48
29907;BME280;16776;50.958;10.994;2023-03-15T12:12:48;98489.13;;;5.11;98.65
29907;BME280;16776;50.958;10.994;2023-03-15T12:15:41;98476.31;;;5.20;98.53
29907;BME280;16776;50.958;10.994;2023-03-15T12:18:13;98464.47;;;5.11;99.39
29907;BME280;16776;50.958;10.994;2023-03-15T12:20:41;98478.81;;;5.24;98.58
29907;BME280;16776;50.958;10.994;2023-03-15T12:23:27;98484.72;;;5.37;98.08
29907;BME280;16776;50.958;10.994;2023-03-15T12:25:57;98482.97;;;5.37;97.83
29907;BME280;16776;50.958;10.994;2023-03-15T12:28:32;98486.38;;;5.42;97.17
29907;BME280;16776;50.958;10.994;2023-03-15T12:31:01;98495.75;;;5.39;97.23
29907;BME280;16776;50.958;10.994;2023-03-15T12:33:30;98488.97;;;5.33;96.03
29907;BME280;16776;50.958;10.994;2023-03-15T12:35:59;98490.72;;;5.27;96.75
29907;BME280;16776;50.958;10.994;2023-03-15T12:38:34;98505.19;;;5.25;97.33
29907;BME280;16776;50.958;10.994;2023-03-15T12:41:06;98503.53;;;5.24;97.33
29907;BME280;16776;50.958;10.994;2023-03-15T12:43:39;98497.53;;;5.26;97.62
29907;BME280;16776;50.958;10.994;2023-03-15T12:49:29;98510.25;;;5.32;96.51
29907;BME280;16776;50.958;10.994;2023-03-15T12:51:58;98508.59;;;5.28;96.56
29907;BME280;16776;50.958;10.994;2023-03-15T12:54:30;98512.00;;;5.30;96.03
29907;BME280;16776;50.958;10.994;2023-03-15T12:56:59;98507.78;;;5.23;96.01
29907;BME280;16776;50.958;10.994;2023-03-15T12:59:37;98510.31;;;5.26;96.03
29907;BME280;16776;50.958;10.994;2023-03-15T13:02:32;98507.81;;;5.19;95.59
29907;BME280;16776;50.958;10.994;2023-03-15T13:05:08;98514.66;;;5.17;95.57
29907;BME280;16776;50.958;10.994;2023-03-15T13:07:48;98521.41;;;5.15;95.29
29907;BME280;16776;50.958;10.994;2023-03-15T13:10:31;98521.44;;;5.12;94.38
29907;BME280;16776;50.958;10.994;2023-03-15T13:13:02;98518.06;;;5.08;95.57
29907;BME280;16776;50.958;10.994;2023-03-15T13:15:38;98507.09;;;4.94;95.19